Time;durP1;ratioP1;P1;durP2;ratioP2;P2;SDS_P1;SDS_P2;PMS_P1;PMS_P2;Temp;Humidity;BMP_temperature;BMP_pressure;BME280_temperature;BME280_humidity;BME280_pressure;Samples;Min_cycle;Max_cycle;Signal;HPM_P1;HPM_P2
2021/11/13 00:00:39;;;;;;;;;;;;;;;19.84;58.45;100734.84;7280194;19;152042;-76
2021/11/13 00:03:06;;;;;;;;;;;;;;;19.86;58.44;100741.81;7281482;19;154045;-75
2021/11/13 00:05:33;;;;;;;;;;;;;;;19.84;58.54;100721.69;7275372;19;152202;-76
2021/11/13 00:08:01;;;;;;;;;;;;;;;19.82;58.32;100721.13;7278338;19;154498;-76
2021/11/13 00:10:28;;;;;;;;;;;;;;;19.83;58.37;100724.78;7277661;19;153636;-76
2021/11/13 00:12:56;;;;;;;;;;;;;;;19.80;58.80;100733.81;7278005;19;153657;-76
2021/11/13 00:15:23;;;;;;;;;;;;;;;19.80;58.80;100740.25;7278904;19;153017;-76
2021/11/13 00:17:50;;;;;;;;;;;;;;;19.78;58.48;100736.09;7273004;19;153439;-75
2021/11/13 00:20:19;;;;;;;;;;;;;;;19.77;58.86;100726.00;7277274;19;152019;-76
2021/11/13 00:22:45;;;;;;;;;;;;;;;19.78;58.28;100725.72;7281744;19;153239;-75
2021/11/13 00:25:13;;;;;;;;;;;;;;;19.81;58.13;100741.06;7277327;19;152680;-76
2021/11/13 00:27:42;;;;;;;;;;;;;;;19.76;58.67;100736.38;7278551;19;154585;-75
2021/11/13 00:30:10;;;;;;;;;;;;;;;19.77;58.65;100740.84;7276131;19;152390;-83
2021/11/13 00:32:37;;;;;;;;;;;;;;;19.77;58.93;100738.06;7279557;19;152551;-75
2021/11/13 00:35:04;;;;;;;;;;;;;;;19.73;58.92;100742.63;7277803;19;152183;-76
2021/11/13 00:37:31;;;;;;;;;;;;;;;19.74;58.95;100743.44;7273673;19;155371;-76
2021/11/13 00:39:57;;;;;;;;;;;;;;;19.72;58.66;100752.16;7278549;19;152820;-75
2021/11/13 00:42:24;;;;;;;;;;;;;;;19.73;58.80;100756.63;7279076;19;156413;-75
2021/11/13 00:44:51;;;;;;;;;;;;;;;19.71;58.84;100753.31;7285763;19;153544;-75
2021/11/13 00:47:18;;;;;;;;;;;;;;;19.68;59.05;100765.13;7277917;19;153945;-75
2021/11/13 00:49:45;;;;;;;;;;;;;;;19.70;59.00;100770.44;7278460;19;154213;-76
2021/11/13 00:52:11;;;;;;;;;;;;;;;19.61;59.78;100770.31;7274043;19;152182;-76
2021/11/13 00:54:39;;;;;;;;;;;;;;;19.64;59.77;100771.66;7278055;19;152985;-75
2021/11/13 00:57:08;;;;;;;;;;;;;;;19.61;59.52;100766.66;7276734;19;153598;-75
2021/11/13 00:59:35;;;;;;;;;;;;;;;19.60;59.68;100768.63;7280035;19;151834;-75
2021/11/13 01:02:03;;;;;;;;;;;;;;;19.58;59.92;100764.50;7275239;19;155885;-75
2021/11/13 01:04:30;;;;;;;;;;;;;;;19.57;60.08;100758.06;7275467;19;153507;-76
2021/11/13 01:06:57;;;;;;;;;;;;;;;19.57;59.96;100760.84;7284376;19;152362;-75
2021/11/13 01:09:26;;;;;;;;;;;;;;;19.54;60.09;100765.09;7272742;19;153857;-75
2021/11/13 01:11:54;;;;;;;;;;;;;;;19.53;60.15;100771.81;7277497;19;151896;-76
2021/11/13 01:14:21;;;;;;;;;;;;;;;19.53;60.41;100780.22;7278448;19;153533;-75
2021/11/13 01:16:48;;;;;;;;;;;;;;;19.53;60.16;100790.63;7274605;19;155955;-76
2021/11/13 01:19:15;;;;;;;;;;;;;;;19.52;60.46;100789.78;7276861;19;153300;-75
2021/11/13 01:21:42;;;;;;;;;;;;;;;19.50;60.34;100789.25;7275416;19;155044;-75
2021/11/13 01:24:09;;;;;;;;;;;;;;;19.50;60.50;100783.66;7274977;19;155456;-75
2021/11/13 01:26:37;;;;;;;;;;;;;;;19.50;60.38;100778.03;7272774;19;152738;-76
2021/11/13 01:29:05;;;;;;;;;;;;;;;19.48;60.86;100779.50;7282877;19;153850;-76
2021/11/13 01:31:31;;;;;;;;;;;;;;;19.47;60.86;100777.84;7275702;19;152466;-74
2021/11/13 01:33:59;;;;;;;;;;;;;;;19.47;60.99;100789.03;7275070;19;152531;-75
2021/11/13 01:36:25;;;;;;;;;;;;;;;19.47;60.62;100789.03;7275413;19;153140;-74
2021/11/13 01:38:54;;;;;;;;;;;;;;;19.45;61.18;100803.34;7274817;19;152656;-76
2021/11/13 01:41:21;;;;;;;;;;;;;;;19.45;61.17;100805.31;7277983;19;153155;-76
2021/11/13 01:43:48;;;;;;;;;;;;;;;19.45;60.85;100805.31;7274710;19;153335;-75
2021/11/13 01:46:15;;;;;;;;;;;;;;;19.44;61.08;100806.47;7273384;19;151808;-75
2021/11/13 01:48:42;;;;;;;;;;;;;;;19.45;61.49;100808.13;7275124;19;153139;-76
2021/11/13 01:51:19;;;;;;;;;;;;;;;19.45;61.46;100805.31;7284494;19;153444;-76
2021/11/13 01:53:47;;;;;;;;;;;;;;;19.43;61.41;100799.16;7281517;19;152725;-76
2021/11/13 01:56:17;;;;;;;;;;;;;;;19.42;61.55;100801.13;7279171;19;152516;-76
2021/11/13 01:58:45;;;;;;;;;;;;;;;19.44;61.49;100812.88;7281959;19;152145;-75
2021/11/13 02:01:12;;;;;;;;;;;;;;;19.42;61.21;100805.91;7281650;19;151918;-76
2021/11/13 02:03:39;;;;;;;;;;;;;;;19.41;61.50;100813.47;7282157;19;153822;-75
2021/11/13 02:06:06;;;;;;;;;;;;;;;19.41;61.51;100827.47;7279817;19;152408;-76
2021/11/13 02:08:32;;;;;;;;;;;;;;;19.41;61.55;100829.44;7282524;19;153470;-76
2021/11/13 02:10:59;;;;;;;;;;;;;;;19.40;61.35;100824.97;7282478;19;152545;-75
2021/11/13 02:13:26;;;;;;;;;;;;;;;19.39;61.54;100826.97;7289531;19;151786;-75
2021/11/13 02:15:53;;;;;;;;;;;;;;;19.39;61.62;100834.53;7280940;19;156144;-76
2021/11/13 02:18:19;;;;;;;;;;;;;;;19.37;61.67;100839.59;7282625;19;152460;-76
2021/11/13 02:20:46;;;;;;;;;;;;;;;19.39;61.32;100840.13;7280370;19;153714;-75
2021/11/13 02:23:16;;;;;;;;;;;;;;;19.38;61.74;100827.25;7279496;19;152566;-76
2021/11/13 02:25:43;;;;;;;;;;;;;;;19.37;61.40;100837.63;7279763;19;154439;-75
2021/11/13 02:28:11;;;;;;;;;;;;;;;19.37;61.46;100839.59;7280563;19;154287;-76
2021/11/13 02:30:38;;;;;;;;;;;;;;;19.37;61.83;100842.41;7280699;19;154016;-75
2021/11/13 02:33:10;;;;;;;;;;;;;;;19.35;61.75;100833.47;7289305;19;152402;-76
2021/11/13 02:35:41;;;;;;;;;;;;;;;19.35;61.69;100841.88;7278272;19;154348;-75
2021/11/13 02:38:11;;;;;;;;;;;;;;;19.35;61.51;100842.69;7279001;19;152709;-77
2021/11/13 02:40:38;;;;;;;;;;;;;;;19.36;61.80;100826.72;7281457;19;154078;-75
2021/11/13 02:43:05;;;;;;;;;;;;;;;19.35;61.42;100833.47;7279125;19;154412;-76
2021/11/13 02:45:31;;;;;;;;;;;;;;;19.34;61.93;100840.22;7282457;19;152974;-75
2021/11/13 02:48:00;;;;;;;;;;;;;;;19.33;61.70;100844.16;7280524;19;152011;-75
2021/11/13 02:50:27;;;;;;;;;;;;;;;19.33;62.16;100842.19;7277817;19;152662;-75
2021/11/13 02:52:54;;;;;;;;;;;;;;;19.35;61.72;100847.50;7279487;19;152242;-75
2021/11/13 02:55:21;;;;;;;;;;;;;;;19.33;61.98;100838.53;7284605;19;153478;-75
2021/11/13 02:57:48;;;;;;;;;;;;;;;19.32;62.20;100850.88;7280572;19;152164;-74
2021/11/13 03:00:16;;;;;;;;;;;;;;;19.31;61.93;100840.78;7280920;19;152762;-73
2021/11/13 03:02:43;;;;;;;;;;;;;;;19.30;62.10;100839.16;7274537;19;156893;-75
2021/11/13 03:05:20;;;;;;;;;;;;;;;19.30;62.35;100844.75;7277980;19;152608;-74
2021/11/13 03:07:46;;;;;;;;;;;;;;;19.29;62.12;100843.91;7278214;19;152327;-75
2021/11/13 03:10:14;;;;;;;;;;;;;;;19.28;61.84;100845.06;7281352;19;156238;-75
2021/11/13 03:12:41;;;;;;;;;;;;;;;19.28;62.23;100845.06;7278460;19;152714;-75
2021/11/13 03:15:08;;;;;;;;;;;;;;;19.30;62.18;100845.59;7280575;19;153546;-75
2021/11/13 03:17:36;;;;;;;;;;;;;;;19.29;62.34;100849.53;7284085;19;154493;-76
2021/11/13 03:20:06;;;;;;;;;;;;;;;19.30;62.34;100853.16;7279635;19;153079;-75
2021/11/13 03:22:34;;;;;;;;;;;;;;;19.29;62.22;100860.72;7279692;19;154513;-75
2021/11/13 03:25:00;;;;;;;;;;;;;;;19.32;61.94;100860.13;7279609;19;152973;-76
2021/11/13 03:27:27;;;;;;;;;;;;;;;19.30;62.21;100868.00;7276407;19;155095;-75
2021/11/13 03:29:55;;;;;;;;;;;;;;;19.29;62.76;100865.50;7278725;19;154471;-76
2021/11/13 03:32:21;;;;;;;;;;;;;;;19.28;62.39;100870.25;7277926;19;152825;-75
2021/11/13 03:34:48;;;;;;;;;;;;;;;19.29;62.27;100873.91;7279531;19;153114;-75
2021/11/13 03:37:15;;;;;;;;;;;;;;;19.28;62.39;100891.84;7277398;19;154647;-76
2021/11/13 03:39:42;;;;;;;;;;;;;;;19.27;62.61;100890.16;7287770;19;152235;-76
2021/11/13 03:42:08;;;;;;;;;;;;;;;19.27;62.12;100899.41;7277103;19;153778;-77
2021/11/13 03:44:35;;;;;;;;;;;;;;;19.27;62.19;100893.78;7282494;19;152060;-76
2021/11/13 03:47:02;;;;;;;;;;;;;;;19.26;62.54;100894.94;7278724;19;154938;-75
2021/11/13 03:49:29;;;;;;;;;;;;;;;19.26;62.61;100896.91;7279149;19;153777;-76
2021/11/13 03:51:57;;;;;;;;;;;;;;;19.27;62.53;100904.16;7278045;19;152240;-76
2021/11/13 03:54:24;;;;;;;;;;;;;;;19.26;62.17;100902.53;7280393;19;152549;-75
2021/11/13 03:56:51;;;;;;;;;;;;;;;19.26;62.57;100908.13;7279340;19;152525;-76
2021/11/13 03:59:17;;;;;;;;;;;;;;;19.26;62.26;100905.31;7279407;19;152632;-75
2021/11/13 04:01:44;;;;;;;;;;;;;;;19.26;62.39;100919.34;7284311;19;154000;-75
2021/11/13 04:04:11;;;;;;;;;;;;;;;19.23;62.08;100914.31;7278075;19;152089;-75
2021/11/13 04:06:37;;;;;;;;;;;;;;;19.24;62.06;100922.41;7278130;19;152823;-76
2021/11/13 04:09:04;;;;;;;;;;;;;;;19.24;62.01;100915.97;7275979;19;154194;-75
2021/11/13 04:11:31;;;;;;;;;;;;;;;19.23;61.87;100922.72;7278494;19;152337;-76
2021/11/13 04:13:58;;;;;;;;;;;;;;;19.23;62.04;100936.72;7277322;19;153014;-75
2021/11/13 04:16:25;;;;;;;;;;;;;;;19.23;62.20;100928.31;7279346;19;153348;-76
2021/11/13 04:18:52;;;;;;;;;;;;;;;19.21;62.01;100934.22;7277483;19;152192;-75
2021/11/13 04:21:20;;;;;;;;;;;;;;;19.22;62.33;100935.03;7276729;19;153687;-75
2021/11/13 04:23:47;;;;;;;;;;;;;;;19.22;62.20;100938.69;7285230;19;152207;-75
2021/11/13 04:26:13;;;;;;;;;;;;;;;19.21;61.73;100930.59;7279662;19;152508;-75
2021/11/13 04:28:40;;;;;;;;;;;;;;;19.23;62.40;100942.31;7278353;19;152850;-76
2021/11/13 04:31:07;;;;;;;;;;;;;;;19.24;62.35;100941.19;7277484;19;151924;-76
2021/11/13 04:33:34;;;;;;;;;;;;;;;19.23;62.20;100942.31;7276693;19;153790;-75
2021/11/13 04:38:29;;;;;;;;;;;;;;;19.21;62.51;100936.19;7276705;19;152862;-75
2021/11/13 04:40:55;;;;;;;;;;;;;;;19.22;62.64;100947.09;7276654;19;153525;-75
2021/11/13 04:43:22;;;;;;;;;;;;;;;19.22;62.69;100947.09;7284788;19;154053;-75
2021/11/13 04:45:49;;;;;;;;;;;;;;;19.21;62.30;100942.63;7280269;19;152660;-75
2021/11/13 04:48:15;;;;;;;;;;;;;;;19.20;62.32;100951.31;7276105;19;153641;-76
2021/11/13 04:50:42;;;;;;;;;;;;;;;19.21;62.81;100951.03;7278748;19;152390;-75
2021/11/13 04:53:09;;;;;;;;;;;;;;;19.20;62.78;100959.72;7276583;19;153861;-75
2021/11/13 04:55:36;;;;;;;;;;;;;;;19.21;62.44;100955.81;7276506;19;154053;-75
2021/11/13 04:58:03;;;;;;;;;;;;;;;19.19;62.76;100960.84;7279448;19;152004;-75
2021/11/13 05:00:30;;;;;;;;;;;;;;;19.22;62.56;100966.69;7276257;19;152750;-75
2021/11/13 05:02:58;;;;;;;;;;;;;;;19.21;62.41;100970.66;7274568;19;155625;-76
2021/11/13 05:05:24;;;;;;;;;;;;;;;19.20;62.54;100982.13;7283273;19;151991;-75
2021/11/13 05:07:51;;;;;;;;;;;;;;;19.19;62.64;100981.31;7271689;19;154891;-75
2021/11/13 05:10:18;;;;;;;;;;;;;;;19.17;62.88;100982.75;7278749;19;152240;-76
2021/11/13 05:12:45;;;;;;;;;;;;;;;19.18;62.84;100985.22;7279136;19;154145;-76
2021/11/13 05:15:15;;;;;;;;;;;;;;;19.17;62.45;100983.56;7276491;19;155009;-75
2021/11/13 05:17:42;;;;;;;;;;;;;;;19.16;62.43;100986.69;7275135;19;152745;-75
2021/11/13 05:20:11;;;;;;;;;;;;;;;19.16;62.82;100998.72;7276448;19;152017;-75
2021/11/13 05:22:39;;;;;;;;;;;;;;;19.13;62.70;100992.84;7273742;19;152434;-76
2021/11/13 05:25:07;;;;;;;;;;;;;;;19.14;62.89;101003.75;7275948;19;151981;-75
2021/11/13 05:27:34;;;;;;;;;;;;;;;19.14;62.81;101012.16;7279608;19;153195;-75
2021/11/13 05:30:01;;;;;;;;;;;;;;;19.14;62.79;101009.38;7277552;19;152078;-75
2021/11/13 05:32:30;;;;;;;;;;;;;;;19.17;62.70;101019.16;7275088;19;152871;-76
2021/11/13 05:34:57;;;;;;;;;;;;;;;19.14;62.90;101022.53;7275985;19;153853;-76
2021/11/13 05:37:23;;;;;;;;;;;;;;;19.15;62.77;101021.41;7275130;19;152384;-76
2021/11/13 05:39:50;;;;;;;;;;;;;;;19.17;62.82;101024.75;7279871;19;152795;-75
2021/11/13 05:42:17;;;;;;;;;;;;;;;19.15;63.04;101030.66;7277161;19;153304;-75
2021/11/13 05:44:45;;;;;;;;;;;;;;;19.13;62.89;101030.09;7276825;19;151988;-75
2021/11/13 05:47:12;;;;;;;;;;;;;;;19.13;62.57;101034.84;7273417;19;153815;-76
2021/11/13 05:49:39;;;;;;;;;;;;;;;19.13;62.43;101044.09;7283101;19;153512;-75
2021/11/13 05:52:06;;;;;;;;;;;;;;;19.12;62.25;101038.81;7276227;19;152697;-75
2021/11/13 05:54:33;;;;;;;;;;;;;;;19.12;62.55;101047.22;7274162;19;154894;-76
2021/11/13 05:56:59;;;;;;;;;;;;;;;19.10;62.53;101056.75;7278169;19;151919;-75
2021/11/13 05:59:46;;;;;;;;;;;;;;;19.11;62.42;101063.19;7276294;19;155260;-76
2021/11/13 06:02:13;;;;;;;;;;;;;;;19.10;62.71;101067.09;7274216;19;153462;-76
2021/11/13 06:04:39;;;;;;;;;;;;;;;19.10;62.89;101061.50;7276470;19;152240;-75
2021/11/13 06:07:06;;;;;;;;;;;;;;;19.09;62.54;101071.88;7272668;19;152259;-75
2021/11/13 06:09:33;;;;;;;;;;;;;;;19.08;62.80;101067.41;7274984;19;153811;-75
2021/11/13 06:12:00;;;;;;;;;;;;;;;19.08;62.88;101074.97;7285157;19;151809;-75
2021/11/13 06:14:26;;;;;;;;;;;;;;;19.07;62.26;101074.16;7275169;19;152434;-75
2021/11/13 06:16:53;;;;;;;;;;;;;;;19.07;62.83;101070.50;7273801;19;151994;-76
2021/11/13 06:19:20;;;;;;;;;;;;;;;19.12;62.51;101078.88;7275805;19;153286;-76
2021/11/13 06:21:47;;;;;;;;;;;;;;;19.09;62.50;101082.22;7273390;19;154223;-76
2021/11/13 06:24:14;;;;;;;;;;;;;;;19.10;62.84;101081.09;7275961;19;152044;-76
2021/11/13 06:26:40;;;;;;;;;;;;;;;19.07;62.90;101088.16;7274277;19;152846;-76
2021/11/13 06:29:07;;;;;;;;;;;;;;;19.07;62.71;101088.16;7273163;19;154113;-76
2021/11/13 06:31:34;;;;;;;;;;;;;;;19.06;62.57;101082.84;7284527;19;152285;-75
2021/11/13 06:34:01;;;;;;;;;;;;;;;19.07;63.00;101099.34;7272757;19;153739;-75
2021/11/13 06:36:28;;;;;;;;;;;;;;;19.06;63.09;101099.63;7274476;19;152772;-76
2021/11/13 06:38:54;;;;;;;;;;;;;;;19.07;63.04;101107.75;7281518;19;153537;-75
2021/11/13 06:41:25;;;;;;;;;;;;;;;19.06;63.02;101105.25;7282158;19;153775;-75
2021/11/13 06:43:53;;;;;;;;;;;;;;;19.05;63.14;101097.97;7283193;19;151769;-76
2021/11/13 06:46:19;;;;;;;;;;;;;;;19.03;63.19;101098.25;7282709;19;153473;-75
2021/11/13 06:48:46;;;;;;;;;;;;;;;19.05;62.69;101112.81;7276635;19;153467;-75
2021/11/13 06:51:13;;;;;;;;;;;;;;;19.05;62.93;101112.81;7280149;19;152352;-75
2021/11/13 06:53:39;;;;;;;;;;;;;;;19.04;62.87;101110.28;7289291;19;153268;-76
2021/11/13 06:56:08;;;;;;;;;;;;;;;19.04;62.94;101116.72;7279282;19;152393;-75
2021/11/13 06:58:36;;;;;;;;;;;;;;;19.02;62.88;101121.78;7280613;19;153338;-75
2021/11/13 07:01:03;;;;;;;;;;;;;;;19.03;63.27;101131.84;7279954;19;153929;-75
2021/11/13 07:03:30;;;;;;;;;;;;;;;19.04;63.15;101127.91;7278367;19;153911;-75
2021/11/13 07:05:56;;;;;;;;;;;;;;;19.03;63.03;101133.84;7281485;19;152765;-75
2021/11/13 07:08:23;;;;;;;;;;;;;;;19.03;63.16;101140.25;7277088;19;153944;-75
2021/11/13 07:10:52;;;;;;;;;;;;;;;19.02;62.96;101140.56;7282992;19;152365;-76
2021/11/13 07:13:20;;;;;;;;;;;;;;;19.02;62.97;101152.59;7280527;19;152158;-75
2021/11/13 07:15:47;;;;;;;;;;;;;;;19.00;62.85;101149.25;7287038;19;154557;-76
2021/11/13 07:18:14;;;;;;;;;;;;;;;19.01;63.26;101148.13;7280746;19;153187;-75
2021/11/13 07:20:42;;;;;;;;;;;;;;;19.00;62.87;101154.84;7280169;19;153436;-75
2021/11/13 07:23:10;;;;;;;;;;;;;;;19.03;62.99;101161.84;7279290;19;152227;-75
2021/11/13 07:25:37;;;;;;;;;;;;;;;19.02;63.36;101163.81;7281709;19;153290;-75
2021/11/13 07:28:12;;;;;;;;;;;;;;;19.00;62.86;101177.25;7278651;19;153382;-74
2021/11/13 07:30:40;;;;;;;;;;;;;;;19.01;62.89;101178.94;7280844;19;151975;-74
2021/11/13 07:33:09;;;;;;;;;;;;;;;19.01;62.94;101183.69;7277062;19;152483;-75
2021/11/13 07:35:36;;;;;;;;;;;;;;;18.99;63.26;101189.56;7279192;19;153463;-75
2021/11/13 07:38:03;;;;;;;;;;;;;;;18.99;63.16;101191.53;7283894;19;153022;-75
2021/11/13 07:40:31;;;;;;;;;;;;;;;19.00;62.69;101199.66;7281079;19;153765;-75
2021/11/13 07:43:00;;;;;;;;;;;;;;;19.00;63.09;101202.44;7280848;19;152570;-76
2021/11/13 07:45:27;;;;;;;;;;;;;;;18.99;63.03;101203.56;7281912;19;153023;-76
2021/11/13 07:47:54;;;;;;;;;;;;;;;18.98;63.11;101215.91;7277351;19;153612;-76
2021/11/13 07:50:21;;;;;;;;;;;;;;;18.99;62.97;101220.38;7276402;19;153658;-75
2021/11/13 07:52:48;;;;;;;;;;;;;;;18.99;62.94;101223.16;7281855;19;153961;-75
2021/11/13 07:55:16;;;;;;;;;;;;;;;19.03;62.76;101229.03;7281544;19;154050;-75
2021/11/13 07:57:43;;;;;;;;;;;;;;;19.07;62.80;101216.97;7280840;19;152246;-75
2021/11/13 08:00:11;;;;;;;;;;;;;;;19.12;63.29;101227.31;7288404;19;151827;-75
2021/11/13 08:02:38;;;;;;;;;;;;;;;19.16;63.54;101233.16;7281410;19;152566;-76
2021/11/13 08:05:05;;;;;;;;;;;;;;;19.20;63.65;101231.44;7280579;19;153200;-75
2021/11/13 08:07:32;;;;;;;;;;;;;;;19.23;63.50;101239.25;7277119;19;154170;-75
2021/11/13 08:09:59;;;;;;;;;;;;;;;19.28;63.95;101240.03;7280180;19;151572;-75
2021/11/13 08:12:25;;;;;;;;;;;;;;;19.31;64.88;101249.81;7281252;19;153555;-76
2021/11/13 08:14:52;;;;;;;;;;;;;;;19.35;65.19;101251.72;7279305;19;153801;-76
2021/11/13 08:17:19;;;;;;;;;;;;;;;19.41;65.57;101252.53;7279039;19;152314;-75
2021/11/13 08:19:46;;;;;;;;;;;;;;;19.45;65.66;101262.06;7279884;19;154170;-75
2021/11/13 08:22:13;;;;;;;;;;;;;;;19.51;66.25;101261.72;7283749;19;156178;-75
2021/11/13 08:24:40;;;;;;;;;;;;;;;19.56;65.89;101272.06;7280212;19;154829;-76
2021/11/13 08:27:09;;;;;;;;;;;;;;;19.64;65.90;101279.81;7276170;19;153272;-75
2021/11/13 08:29:36;;;;;;;;;;;;;;;19.70;65.56;101273.03;7276138;19;151998;-76
2021/11/13 08:32:04;;;;;;;;;;;;;;;19.76;65.39;101277.44;7280426;19;152554;-76
2021/11/13 08:34:31;;;;;;;;;;;;;;;19.84;65.30;101281.59;7278091;19;154657;-75
2021/11/13 08:36:58;;;;;;;;;;;;;;;19.89;65.81;101281.56;7275832;19;151914;-76
2021/11/13 08:39:25;;;;;;;;;;;;;;;19.95;65.49;101281.19;7280860;19;154462;-75
2021/11/13 08:41:52;;;;;;;;;;;;;;;20.03;65.17;101298.53;7287459;19;153648;-75
2021/11/13 08:44:19;;;;;;;;;;;;;;;20.08;64.37;101301.28;7278407;19;153076;-76
2021/11/13 08:46:46;;;;;;;;;;;;;;;20.12;64.40;101299.53;7279149;19;152542;-76
2021/11/13 08:49:13;;;;;;;;;;;;;;;20.24;63.39;101298.00;7277800;19;152036;-75
2021/11/13 08:51:40;;;;;;;;;;;;;;;20.28;63.91;101298.22;7276925;19;152995;-75
2021/11/13 08:54:07;;;;;;;;;;;;;;;20.35;63.56;101299.56;7279676;19;153278;-75
2021/11/13 08:56:35;;;;;;;;;;;;;;;20.40;63.49;101305.13;7280902;19;152272;-76
2021/11/13 08:59:01;;;;;;;;;;;;;;;20.47;63.59;101306.75;7279789;19;156538;-76
2021/11/13 09:01:29;;;;;;;;;;;;;;;20.52;63.33;101312.28;7277826;19;154060;-76
2021/11/13 09:03:58;;;;;;;;;;;;;;;20.60;63.25;101311.63;7286894;19;152752;-76
2021/11/13 09:06:30;;;;;;;;;;;;;;;20.63;62.67;101311.84;7276030;19;152995;-76
2021/11/13 09:08:59;;;;;;;;;;;;;;;20.70;62.80;101311.50;7275082;19;151846;-76
2021/11/13 09:11:27;;;;;;;;;;;;;;;20.74;62.83;101312.56;7278177;19;152514;-76
2021/11/13 09:13:54;;;;;;;;;;;;;;;20.81;63.04;101319.47;7275571;19;153899;-76
2021/11/13 09:16:22;;;;;;;;;;;;;;;20.85;62.43;101312.13;7279997;19;152577;-76
2021/11/13 09:18:48;;;;;;;;;;;;;;;20.92;62.62;101319.34;7276753;19;152614;-76
2021/11/13 09:21:15;;;;;;;;;;;;;;;20.97;62.55;101322.09;7276682;19;153789;-76
2021/11/13 09:23:42;;;;;;;;;;;;;;;21.01;62.17;101325.97;7278223;19;152614;-76
2021/11/13 09:26:10;;;;;;;;;;;;;;;21.05;62.00;101327.03;7284473;19;153924;-76
2021/11/13 09:28:38;;;;;;;;;;;;;;;21.10;62.09;101333.41;7274085;19;152205;-76
2021/11/13 09:31:05;;;;;;;;;;;;;;;21.11;61.83;101320.19;7281363;19;153139;-77
2021/11/13 09:33:32;;;;;;;;;;;;;;;21.13;61.65;101330.03;7273968;19;153332;-76
2021/11/13 09:35:59;;;;;;;;;;;;;;;21.14;61.34;101325.25;7275687;19;152128;-76
2021/11/13 09:38:28;;;;;;;;;;;;;;;21.18;61.53;101317.88;7276817;19;153303;-75
2021/11/13 09:40:56;;;;;;;;;;;;;;;21.21;61.08;101325.72;7276221;19;154289;-76
2021/11/13 09:43:24;;;;;;;;;;;;;;;21.22;61.01;101325.38;7277922;19;152656;-76
2021/11/13 09:45:52;;;;;;;;;;;;;;;21.26;60.71;101326.44;7280134;19;153195;-76
2021/11/13 09:48:19;;;;;;;;;;;;;;;21.27;60.63;101325.31;7280711;19;153973;-75
2021/11/13 09:50:49;;;;;;;;;;;;;;;21.29;60.91;101325.84;7278809;19;153205;-76
2021/11/13 09:53:16;;;;;;;;;;;;;;;21.31;61.29;101325.53;7275002;19;154536;-76
2021/11/13 09:55:44;;;;;;;;;;;;;;;21.33;60.82;101336.47;7278688;19;151938;-76
2021/11/13 09:58:11;;;;;;;;;;;;;;;21.37;61.40;101329.09;7277067;19;153100;-76
2021/11/13 10:00:39;;;;;;;;;;;;;;;21.39;61.62;101336.13;7275374;19;152177;-76
2021/11/13 10:03:07;;;;;;;;;;;;;;;21.43;60.84;101339.97;7275413;19;152607;-76
2021/11/13 10:05:34;;;;;;;;;;;;;;;21.43;60.21;101339.97;7275631;19;153671;-75
2021/11/13 10:08:01;;;;;;;;;;;;;;;21.46;59.57;101346.94;7276079;19;152566;-76
2021/11/13 10:10:32;;;;;;;;;;;;;;;21.20;52.55;101347.34;7284469;19;152293;-75
2021/11/13 10:13:00;;;;;;;;;;;;;;;21.05;50.65;101350.34;7277269;19;152998;-76
2021/11/13 10:15:36;;;;;;;;;;;;;;;20.91;50.78;101352.22;7284403;19;152474;-75
2021/11/13 10:18:10;;;;;;;;;;;;;;;20.78;50.08;101350.16;7280168;19;153205;-75
2021/11/13 10:20:40;;;;;;;;;;;;;;;20.72;50.13;101354.97;7281585;19;154294;-75
2021/11/13 10:23:08;;;;;;;;;;;;;;;20.69;49.67;101357.56;7283161;19;152642;-75
2021/11/13 10:25:35;;;;;;;;;;;;;;;20.59;50.12;101357.69;7285636;19;154121;-75
2021/11/13 10:28:11;;;;;;;;;;;;;;;20.69;50.69;101355.59;7280055;19;152314;-76
2021/11/13 10:30:39;;;;;;;;;;;;;;;20.79;51.60;101361.09;7282697;19;152036;-76
2021/11/13 10:33:06;;;;;;;;;;;;;;;20.83;52.71;101362.16;7287004;19;154917;-76
2021/11/13 10:35:41;;;;;;;;;;;;;;;20.86;52.05;101363.50;7280454;19;152189;-76
2021/11/13 10:38:17;;;;;;;;;;;;;;;20.88;52.74;101375.28;7276786;19;153244;-76
2021/11/13 10:41:01;;;;;;;;;;;;;;;20.92;53.01;101372.72;7280919;19;152706;-76
2021/11/13 10:43:38;;;;;;;;;;;;;;;20.93;53.56;101375.22;7279624;19;152607;-76
2021/11/13 10:46:07;;;;;;;;;;;;;;;20.91;53.92;101368.22;7282724;19;153188;-76
2021/11/13 10:48:36;;;;;;;;;;;;;;;20.90;54.50;101377.78;7279129;19;156043;-76
2021/11/13 10:51:04;;;;;;;;;;;;;;;20.87;54.55;101379.22;7282261;19;152174;-76
2021/11/13 10:53:35;;;;;;;;;;;;;;;20.86;54.83;101371.94;7287182;19;152884;-76
2021/11/13 10:56:04;;;;;;;;;;;;;;;20.84;54.64;101372.25;7279231;19;151943;-76
2021/11/13 10:58:32;;;;;;;;;;;;;;;20.90;54.30;101377.78;7281884;19;153319;-76
2021/11/13 11:01:00;;;;;;;;;;;;;;;20.94;54.77;101384.50;7281712;19;153378;-76
2021/11/13 11:03:29;;;;;;;;;;;;;;;20.92;54.83;101375.53;7280166;19;152077;-75
2021/11/13 11:05:56;;;;;;;;;;;;;;;20.94;55.03;101384.50;7275584;19;152973;-75
2021/11/13 11:08:25;;;;;;;;;;;;;;;20.95;55.09;101383.34;7277827;19;152842;-76
2021/11/13 11:10:52;;;;;;;;;;;;;;;20.96;55.01;101385.84;7281685;19;152278;-76
2021/11/13 11:13:38;;;;;;;;;;;;;;;20.98;55.13;101388.38;7279877;19;153727;-75
2021/11/13 11:16:19;;;;;;;;;;;;;;;20.97;55.30;101387.53;7287414;19;153527;-75
2021/11/13 11:18:51;;;;;;;;;;;;;;;20.99;55.46;101387.22;7280756;19;153319;-76
2021/11/13 11:21:28;;;;;;;;;;;;;;;21.00;55.02;101388.91;7279677;19;153745;-76
2021/11/13 11:24:06;;;;;;;;;;;;;;;21.00;55.21;101383.28;7279694;19;152186;-76
2021/11/13 11:26:33;;;;;;;;;;;;;;;20.99;55.06;101385.25;7282855;19;152698;-75
2021/11/13 11:29:00;;;;;;;;;;;;;;;20.99;54.92;101381.59;7279202;19;153949;-75
2021/11/13 11:31:37;;;;;;;;;;;;;;;20.98;55.22;101394.00;7280933;19;151989;-75
2021/11/13 11:34:04;;;;;;;;;;;;;;;20.98;55.27;101389.22;7279307;19;151989;-75
2021/11/13 11:36:32;;;;;;;;;;;;;;;20.97;55.09;101387.53;7274211;19;154563;-75
2021/11/13 11:39:00;;;;;;;;;;;;;;;20.97;55.04;101381.91;7287255;19;152607;-75
2021/11/13 11:41:27;;;;;;;;;;;;;;;20.95;55.19;101383.34;7278853;19;155278;-76
2021/11/13 11:43:54;;;;;;;;;;;;;;;20.95;54.95;101381.38;7280794;19;152433;-75
2021/11/13 11:46:21;;;;;;;;;;;;;;;20.96;54.95;101379.41;7280736;19;153330;-75
2021/11/13 11:48:51;;;;;;;;;;;;;;;20.93;55.36;101378.03;7276946;19;154555;-74
2021/11/13 11:51:18;;;;;;;;;;;;;;;20.93;55.00;101386.47;7278576;19;152134;-75
2021/11/13 11:53:45;;;;;;;;;;;;;;;20.92;55.05;101387.59;7278325;19;154021;-77
2021/11/13 11:56:12;;;;;;;;;;;;;;;20.90;55.48;101387.06;7278018;19;154246;-77
2021/11/13 11:58:41;;;;;;;;;;;;;;;20.90;55.14;101395.47;7275576;19;152469;-75
2021/11/13 12:01:23;;;;;;;;;;;;;;;20.90;55.08;101403.91;7279320;19;155207;-75
2021/11/13 12:03:50;;;;;;;;;;;;;;;20.84;55.40;101399.50;7277049;19;154466;-76
2021/11/13 12:06:16;;;;;;;;;;;;;;;20.83;55.50;101398.66;7278426;19;152768;-76
2021/11/13 12:09:00;;;;;;;;;;;;;;;20.84;55.43;101396.69;7274798;19;154068;-75
2021/11/13 12:11:32;;;;;;;;;;;;;;;20.83;55.65;101400.63;7277220;19;154183;-76
2021/11/13 12:14:19;;;;;;;;;;;;;;;20.84;55.76;101400.34;7279381;19;151800;-76
2021/11/13 12:16:46;;;;;;;;;;;;;;;20.82;56.10;101408.22;7276603;19;153477;-77
2021/11/13 12:19:15;;;;;;;;;;;;;;;20.90;55.97;101403.06;7277820;19;152289;-78
2021/11/13 12:21:51;;;;;;;;;;;;;;;20.90;56.21;101395.47;7276352;19;153701;-76
2021/11/13 12:24:18;;;;;;;;;;;;;;;20.90;56.20;101411.50;7280109;19;153679;-76
2021/11/13 12:26:55;;;;;;;;;;;;;;;20.89;55.69;101409.84;7266694;19;153996;-76
2021/11/13 12:29:25;;;;;;;;;;;;;;;20.88;55.94;101411.81;7271873;19;154108;-76
2021/11/13 12:31:55;;;;;;;;;;;;;;;20.87;55.73;101407.31;7275179;19;151986;-75
2021/11/13 12:34:24;;;;;;;;;;;;;;;20.84;55.71;101405.97;7274361;19;153161;-76